createdAt,value
2018-03-15T00:02:03.117Z,87.64
2018-03-15T00:04:28.993Z,87.93
2018-03-15T00:06:54.907Z,88.20
2018-03-15T00:09:20.765Z,87.77
2018-03-15T00:11:46.617Z,87.77
2018-03-15T00:14:12.504Z,86.98
2018-03-15T00:16:38.366Z,87.47
2018-03-15T00:19:04.220Z,87.61
2018-03-15T00:21:30.213Z,87.32
2018-03-15T00:23:56.074Z,87.65
2018-03-15T00:26:21.937Z,87.93
2018-03-15T00:28:47.868Z,88.35
2018-03-15T00:31:13.721Z,88.12
2018-03-15T00:33:39.680Z,88.26
2018-03-15T00:36:05.594Z,87.71
2018-03-15T00:38:31.440Z,87.98
2018-03-15T00:40:57.284Z,87.99
2018-03-15T00:43:23.198Z,88.08
2018-03-15T00:45:49.150Z,88.29
2018-03-15T00:48:15.004Z,88.11
2018-03-15T00:50:40.901Z,88.32
2018-03-15T00:53:06.773Z,87.89
2018-03-15T00:55:32.675Z,87.91
2018-03-15T00:57:58.664Z,88.27
2018-03-15T01:00:24.528Z,88.47
2018-03-15T01:02:50.377Z,88.39
2018-03-15T01:05:16.284Z,88.32
2018-03-15T01:07:42.150Z,88.45
2018-03-15T01:10:08.105Z,88.14
2018-03-15T01:12:34.000Z,88.25
2018-03-15T01:14:59.874Z,88.40
2018-03-15T01:17:25.736Z,88.10
2018-03-15T01:19:51.802Z,87.87
2018-03-15T01:22:17.711Z,88.29
2018-03-15T01:24:43.565Z,88.38
2018-03-15T01:27:09.472Z,87.75
2018-03-15T01:29:35.329Z,87.86
2018-03-15T01:32:01.184Z,87.87
2018-03-15T01:34:27.081Z,88.08
2018-03-15T01:36:52.945Z,88.07
2018-03-15T01:39:18.814Z,88.05
2018-03-15T01:41:44.700Z,88.31
2018-03-15T01:44:10.570Z,88.05
2018-03-15T01:46:36.433Z,88.20
2018-03-15T01:49:02.345Z,88.26
2018-03-15T01:51:28.209Z,88.19
2018-03-15T01:53:54.085Z,88.22
2018-03-15T01:56:19.986Z,88.19
2018-03-15T01:58:45.857Z,88.25
2018-03-15T02:01:11.751Z,88.22
2018-03-15T02:03:37.668Z,88.37
2018-03-15T02:06:03.532Z,88.53
2018-03-15T02:08:29.377Z,88.99
2018-03-15T02:10:55.438Z,89.14
2018-03-15T02:13:21.314Z,89.31
2018-03-15T02:15:47.156Z,89.17
2018-03-15T02:18:13.376Z,89.04
2018-03-15T02:20:39.393Z,88.54
2018-03-15T02:23:05.332Z,88.92
2018-03-15T02:25:31.225Z,88.98
2018-03-15T02:27:57.079Z,89.39
2018-03-15T02:30:22.951Z,89.12
2018-03-15T02:32:48.862Z,88.94
2018-03-15T02:35:14.808Z,89.19
2018-03-15T02:37:40.660Z,89.24
2018-03-15T02:40:06.738Z,89.26
2018-03-15T02:42:32.620Z,89.14
2018-03-15T02:44:58.478Z,88.85
2018-03-15T02:47:24.812Z,89.25
2018-03-15T02:49:50.685Z,89.02
2018-03-15T02:52:16.541Z,89.25
2018-03-15T02:54:42.430Z,88.90
2018-03-15T02:57:08.294Z,88.99
2018-03-15T02:59:34.294Z,89.17
2018-03-15T03:02:00.208Z,89.50
2018-03-15T03:04:26.070Z,89.34
2018-03-15T03:06:51.930Z,89.30
2018-03-15T03:09:17.870Z,89.39
2018-03-15T03:11:43.884Z,89.20
2018-03-15T03:14:09.763Z,89.17
2018-03-15T03:16:35.981Z,89.47
2018-03-15T03:19:01.880Z,89.45
2018-03-15T03:21:27.774Z,89.51
2018-03-15T03:23:53.835Z,88.86
2018-03-15T03:26:19.709Z,89.09
2018-03-15T03:28:45.550Z,89.18
2018-03-15T03:31:11.522Z,89.44
2018-03-15T03:33:37.376Z,89.38
2018-03-15T03:36:03.392Z,89.44
2018-03-15T03:38:29.473Z,89.49
2018-03-15T03:40:55.348Z,89.59
2018-03-15T03:43:21.192Z,89.17
2018-03-15T03:45:47.093Z,89.36
2018-03-15T03:48:13.920Z,89.43
2018-03-15T03:50:39.794Z,89.64
2018-03-15T03:53:05.697Z,89.43
2018-03-15T03:55:31.572Z,89.37
2018-03-15T03:57:57.437Z,89.56
2018-03-15T04:00:23.504Z,89.68
2018-03-15T04:02:49.375Z,89.48
2018-03-15T04:05:15.221Z,89.57
2018-03-15T04:07:41.126Z,89.47
2018-03-15T04:10:07.006Z,89.54
2018-03-15T04:12:33.098Z,89.51
2018-03-15T04:14:59.008Z,89.43
2018-03-15T04:17:24.864Z,89.58
2018-03-15T04:19:50.721Z,89.42
2018-03-15T04:22:16.624Z,89.54
2018-03-15T04:24:42.630Z,89.19
2018-03-15T04:27:08.513Z,89.26
2018-03-15T04:29:34.433Z,89.36
2018-03-15T04:32:00.291Z,89.19
2018-03-15T04:34:26.155Z,89.15
2018-03-15T04:36:52.202Z,89.20
2018-03-15T04:39:18.064Z,89.16
2018-03-15T04:41:43.916Z,89.18
2018-03-15T04:44:09.837Z,89.18
2018-03-15T04:46:35.693Z,89.29
2018-03-15T04:49:01.686Z,89.41
2018-03-15T04:51:27.584Z,89.42
2018-03-15T04:53:53.436Z,89.57
2018-03-15T04:56:19.281Z,89.54
2018-03-15T04:58:45.360Z,89.31
2018-03-15T05:01:11.374Z,89.40
2018-03-15T05:03:37.233Z,89.34
2018-03-15T05:06:03.142Z,89.55
2018-03-15T05:08:29.002Z,88.88
2018-03-15T05:10:54.852Z,89.31
2018-03-15T05:13:21.101Z,89.38
2018-03-15T05:15:46.969Z,89.44
2018-03-15T05:18:12.854Z,89.12
2018-03-15T05:20:38.733Z,89.44
2018-03-15T05:23:04.589Z,89.56
2018-03-15T05:25:30.593Z,89.19
2018-03-15T05:27:56.516Z,89.26
2018-03-15T05:30:22.368Z,89.22
2018-03-15T05:32:48.221Z,89.19
2018-03-15T05:35:14.126Z,89.22
2018-03-15T05:37:40.125Z,89.35
2018-03-15T05:40:06.001Z,89.05
2018-03-15T05:42:31.897Z,88.93
2018-03-15T05:44:57.758Z,88.91
2018-03-15T05:47:23.625Z,88.74
2018-03-15T05:49:49.685Z,88.71
2018-03-15T05:52:15.542Z,88.80
2018-03-15T05:54:41.393Z,88.47
2018-03-15T05:57:07.686Z,88.76
2018-03-15T05:59:33.556Z,88.68
2018-03-15T06:01:59.560Z,88.64
2018-03-15T06:04:25.473Z,88.36
2018-03-15T06:06:51.339Z,88.52
2018-03-15T06:09:17.194Z,88.63
2018-03-15T06:11:43.089Z,88.50
2018-03-15T06:14:09.089Z,87.77
2018-03-15T06:16:34.949Z,88.18
2018-03-15T06:19:00.835Z,88.38
2018-03-15T06:21:26.692Z,88.54
2018-03-15T06:23:52.562Z,88.72
2018-03-15T06:26:18.529Z,88.75
2018-03-15T06:28:44.418Z,88.54
2018-03-15T06:31:10.282Z,88.95
2018-03-15T06:33:36.177Z,88.66
2018-03-15T06:36:02.041Z,88.60
2018-03-15T06:38:27.898Z,89.11
2018-03-15T06:40:53.806Z,89.21
2018-03-15T06:43:19.672Z,89.09
2018-03-15T06:45:45.528Z,89.25
2018-03-15T06:48:11.421Z,89.68
2018-03-15T06:50:37.475Z,89.71
2018-03-15T06:53:03.401Z,89.91
2018-03-15T06:55:29.335Z,89.94
2018-03-15T06:57:55.194Z,89.90
2018-03-15T07:00:21.058Z,90.07
2018-03-15T07:02:46.977Z,90.09
2018-03-15T07:05:12.847Z,90.26
2018-03-15T07:07:38.704Z,90.27
2018-03-15T07:10:04.597Z,90.19
2018-03-15T07:12:30.465Z,90.07
2018-03-15T07:14:56.333Z,89.80
2018-03-15T07:17:22.228Z,89.76
2018-03-15T07:19:48.104Z,89.96
2018-03-15T07:22:13.969Z,90.01
2018-03-15T07:24:39.881Z,89.52
2018-03-15T07:27:05.736Z,89.64
2018-03-15T07:29:31.741Z,89.60
2018-03-15T07:31:57.661Z,89.35
2018-03-15T07:34:23.510Z,89.39
2018-03-15T07:36:49.462Z,89.18
2018-03-15T07:39:15.344Z,89.15
2018-03-15T07:41:41.225Z,88.91
2018-03-15T07:44:07.096Z,88.92
2018-03-15T07:46:32.984Z,89.21
2018-03-15T07:48:58.853Z,88.92
2018-03-15T07:51:24.708Z,88.69
2018-03-15T07:53:50.598Z,88.45
2018-03-15T07:56:16.457Z,88.63
2018-03-15T07:58:42.300Z,88.10
2018-03-15T08:01:08.219Z,88.47
2018-03-15T08:03:34.067Z,88.66
2018-03-15T08:05:59.982Z,88.68
2018-03-15T08:08:25.873Z,88.25
2018-03-15T08:10:51.732Z,88.30
2018-03-15T08:13:17.590Z,88.37
2018-03-15T08:15:43.484Z,88.10
2018-03-15T08:18:09.357Z,88.03
2018-03-15T08:20:35.229Z,87.93
2018-03-15T08:23:01.142Z,87.64
2018-03-15T08:25:27.003Z,87.71
2018-03-15T08:27:52.880Z,87.39
2018-03-15T08:30:18.864Z,87.43
2018-03-15T08:32:44.708Z,87.54
2018-03-15T08:35:10.560Z,87.06
2018-03-15T08:37:36.488Z,86.33
2018-03-15T08:40:02.357Z,87.03
2018-03-15T08:42:28.321Z,87.06
2018-03-15T08:44:54.221Z,87.06
2018-03-15T08:47:20.084Z,86.57
2018-03-15T08:49:45.943Z,86.70
2018-03-15T08:52:11.837Z,86.76
2018-03-15T08:54:37.701Z,85.72
2018-03-15T08:57:03.558Z,85.75
2018-03-15T08:59:29.453Z,85.89
2018-03-15T09:01:55.333Z,85.60
2018-03-15T09:04:21.219Z,85.38
2018-03-15T09:06:47.120Z,86.08
2018-03-15T09:09:13.040Z,85.23
2018-03-15T09:11:38.843Z,85.82
2018-03-15T09:14:04.736Z,85.59
2018-03-15T09:16:30.638Z,85.44
2018-03-15T09:18:56.521Z,85.66
2018-03-15T09:21:22.433Z,85.73
2018-03-15T09:23:48.301Z,85.33
2018-03-15T09:26:14.170Z,85.10
2018-03-15T09:28:40.068Z,85.52
2018-03-15T09:31:05.991Z,84.71
2018-03-15T09:33:31.877Z,84.72
2018-03-15T09:35:57.800Z,84.49
2018-03-15T09:38:23.687Z,84.38
2018-03-15T09:40:49.564Z,83.74
2018-03-15T09:43:15.481Z,83.45
2018-03-15T09:45:41.379Z,83.99
2018-03-15T09:48:07.250Z,82.93
2018-03-15T09:50:33.175Z,82.73
2018-03-15T09:52:59.040Z,82.46
2018-03-15T09:55:24.905Z,82.11
2018-03-15T09:57:50.813Z,82.89
2018-03-15T10:00:16.693Z,82.04
2018-03-15T10:02:42.577Z,81.42
2018-03-15T10:05:08.492Z,81.03
2018-03-15T10:07:34.377Z,81.07
2018-03-15T10:10:00.253Z,82.18
2018-03-15T10:12:26.248Z,80.87
2018-03-15T10:14:52.120Z,79.41
2018-03-15T10:17:18.001Z,81.07
2018-03-15T10:19:43.918Z,80.14
2018-03-15T10:22:09.838Z,79.06
2018-03-15T10:24:35.698Z,78.93
2018-03-15T10:27:01.609Z,79.21
2018-03-15T10:29:27.485Z,79.33
2018-03-15T10:31:54.373Z,79.69
2018-03-15T10:34:20.326Z,79.24
2018-03-15T10:36:46.222Z,79.39
2018-03-15T10:39:12.123Z,78.75
2018-03-15T10:41:38.158Z,79.40
2018-03-15T10:44:04.054Z,79.04
2018-03-15T10:46:29.944Z,79.21
2018-03-15T10:48:55.872Z,78.60
2018-03-15T10:51:21.753Z,78.65
2018-03-15T10:53:47.629Z,79.13
2018-03-15T10:56:13.567Z,78.16
2018-03-15T10:58:39.432Z,77.96
2018-03-15T11:01:05.316Z,77.18
2018-03-15T11:03:37.326Z,77.85
2018-03-15T11:06:09.325Z,77.06
2018-03-15T11:08:35.234Z,77.76
2018-03-15T11:11:09.935Z,77.11
2018-03-15T11:13:35.834Z,77.96
2018-03-15T11:16:01.704Z,77.66
2018-03-15T11:18:27.616Z,76.98
2018-03-15T11:20:53.501Z,77.41
2018-03-15T11:23:19.385Z,76.40
2018-03-15T11:25:45.321Z,77.19
2018-03-15T11:28:11.192Z,76.58
2018-03-15T11:30:37.064Z,75.57
2018-03-15T11:33:03.002Z,73.76
2018-03-15T11:35:28.869Z,74.53
2018-03-15T11:37:54.754Z,73.07
2018-03-15T11:40:20.705Z,73.66
2018-03-15T11:42:46.568Z,74.64
2018-03-15T11:45:12.443Z,73.82
2018-03-15T11:47:38.356Z,74.96
2018-03-15T11:50:04.228Z,74.63
2018-03-15T11:52:30.097Z,74.04
2018-03-15T11:54:56.021Z,74.55
2018-03-15T11:57:21.881Z,73.73
2018-03-15T11:59:48.842Z,73.62
2018-03-15T12:02:14.765Z,74.09
2018-03-15T12:04:40.645Z,75.26
2018-03-15T12:07:06.530Z,74.29
2018-03-15T12:09:32.921Z,74.37
2018-03-15T12:11:58.789Z,73.97
2018-03-15T12:14:24.670Z,73.01
2018-03-15T12:16:50.587Z,73.78
2018-03-15T12:19:16.457Z,74.98
2018-03-15T12:21:42.316Z,73.89
2018-03-15T12:24:08.267Z,73.64
2018-03-15T12:26:34.120Z,75.23
2018-03-15T12:28:59.989Z,75.17
2018-03-15T12:31:25.897Z,75.80
2018-03-15T12:33:51.836Z,75.79
2018-03-15T12:36:17.689Z,75.37
2018-03-15T12:38:43.918Z,74.62
2018-03-15T12:41:09.783Z,74.88
2018-03-15T12:43:35.647Z,74.72
2018-03-15T12:46:01.662Z,75.08
2018-03-15T12:48:27.543Z,75.66
2018-03-15T12:50:53.398Z,76.06
2018-03-15T12:53:19.300Z,76.06
2018-03-15T12:55:45.156Z,75.75
2018-03-15T12:58:11.104Z,75.88
2018-03-15T13:00:37.008Z,75.24
2018-03-15T13:03:02.898Z,75.54
2018-03-15T13:05:28.756Z,75.47
2018-03-15T13:07:54.705Z,74.87
2018-03-15T13:10:20.654Z,74.79
2018-03-15T13:12:46.532Z,74.33
2018-03-15T13:15:12.441Z,74.63
2018-03-15T13:17:38.313Z,74.14
2018-03-15T13:20:04.181Z,75.00
2018-03-15T13:22:30.186Z,73.81
2018-03-15T13:24:56.048Z,74.34
2018-03-15T13:27:21.913Z,73.92
2018-03-15T13:29:47.815Z,74.30
2018-03-15T13:32:13.677Z,74.43
2018-03-15T13:34:39.642Z,73.50
2018-03-15T13:37:05.561Z,74.66
2018-03-15T13:39:31.422Z,74.87
2018-03-15T13:41:57.309Z,73.94
2018-03-15T13:44:23.593Z,74.29
2018-03-15T13:46:49.557Z,74.74
2018-03-15T13:49:15.400Z,73.72
2018-03-15T13:51:41.337Z,73.11
2018-03-15T13:54:07.217Z,72.16
2018-03-15T13:56:33.085Z,71.73
2018-03-15T13:58:59.088Z,71.68
2018-03-15T14:01:24.952Z,71.37
2018-03-15T14:03:52.137Z,71.03
2018-03-15T14:06:18.296Z,70.67
2018-03-15T14:08:44.170Z,71.43
2018-03-15T14:11:10.133Z,69.86
2018-03-15T14:13:36.051Z,69.91
2018-03-15T14:16:01.942Z,68.51
2018-03-15T14:18:27.793Z,68.18
2018-03-15T14:20:53.853Z,68.70
2018-03-15T14:23:19.981Z,70.06
2018-03-15T14:25:45.833Z,69.64
2018-03-15T14:28:11.740Z,69.86
2018-03-15T14:30:37.612Z,70.76
2018-03-15T14:33:03.486Z,70.55
2018-03-15T14:35:29.470Z,71.34
2018-03-15T14:37:55.321Z,72.16
2018-03-15T14:40:21.182Z,72.54
2018-03-15T14:42:47.102Z,72.21
2018-03-15T14:45:13.010Z,72.34
2018-03-15T14:47:38.925Z,72.36
2018-03-15T14:50:04.922Z,72.24
2018-03-15T14:52:30.785Z,72.59
2018-03-15T14:54:56.645Z,72.58
2018-03-15T14:57:22.536Z,71.58
2018-03-15T14:59:48.472Z,71.36
2018-03-15T15:02:14.346Z,70.03
2018-03-15T15:04:40.245Z,69.66
2018-03-15T15:07:06.101Z,70.32
2018-03-15T15:09:31.972Z,70.93
2018-03-15T15:11:57.961Z,71.03
2018-03-15T15:14:23.890Z,71.58
2018-03-15T15:16:49.763Z,71.29
2018-03-15T15:19:15.669Z,71.01
2018-03-15T15:21:41.586Z,71.05
2018-03-15T15:24:07.545Z,70.90
2018-03-15T15:26:33.450Z,72.22
2018-03-15T15:28:59.321Z,71.54
2018-03-15T15:31:25.190Z,71.76
2018-03-15T15:33:51.093Z,70.46
2018-03-15T15:36:17.049Z,70.74
2018-03-15T15:38:42.922Z,70.81
2018-03-15T15:41:08.821Z,70.46
2018-03-15T15:43:34.697Z,70.59
2018-03-15T15:46:00.553Z,70.91
2018-03-15T15:48:26.560Z,69.70
2018-03-15T15:50:52.465Z,71.11
2018-03-15T15:53:18.324Z,71.23
2018-03-15T15:55:44.221Z,71.04
2018-03-15T15:58:10.106Z,70.80
2018-03-15T16:00:36.061Z,71.33
2018-03-15T16:03:02.010Z,71.46
2018-03-15T16:05:27.885Z,71.69
2018-03-15T16:07:53.742Z,70.84
2018-03-15T16:10:19.665Z,70.81
2018-03-15T16:12:45.625Z,71.26
2018-03-15T16:15:11.485Z,71.37
2018-03-15T16:17:37.476Z,71.67
2018-03-15T16:20:03.352Z,72.09
2018-03-15T16:22:29.209Z,71.87
2018-03-15T16:24:55.185Z,72.48
2018-03-15T16:27:21.032Z,72.94
2018-03-15T16:29:46.875Z,72.70
2018-03-15T16:32:12.819Z,72.31
2018-03-15T16:34:38.749Z,73.11
2018-03-15T16:37:04.613Z,73.00
2018-03-15T16:39:30.505Z,72.79
2018-03-15T16:41:56.376Z,73.18
2018-03-15T16:44:22.238Z,71.84
2018-03-15T16:46:48.150Z,71.24
2018-03-15T16:49:14.009Z,71.44
2018-03-15T16:51:39.877Z,71.20
2018-03-15T16:54:05.775Z,71.65
2018-03-15T16:56:31.658Z,71.26
2018-03-15T16:58:57.516Z,71.65
2018-03-15T17:01:23.437Z,71.40
2018-03-15T17:03:49.366Z,71.97
2018-03-15T17:06:15.224Z,71.78
2018-03-15T17:08:41.183Z,71.43
2018-03-15T17:11:07.032Z,72.33
2018-03-15T17:13:32.904Z,72.45
2018-03-15T17:15:58.801Z,72.84
2018-03-15T17:18:24.686Z,72.57
2018-03-15T17:20:50.554Z,72.63
2018-03-15T17:23:16.465Z,72.88
2018-03-15T17:25:42.373Z,73.24
2018-03-15T17:28:08.243Z,73.32
2018-03-15T17:30:34.162Z,72.44
2018-03-15T17:33:00.019Z,72.31
2018-03-15T17:35:25.874Z,71.81
2018-03-15T17:37:51.768Z,72.44
2018-03-15T17:40:17.722Z,72.83
2018-03-15T17:42:43.632Z,72.62
2018-03-15T17:45:09.510Z,73.12
2018-03-15T17:47:35.368Z,72.97
2018-03-15T17:50:01.230Z,72.59
2018-03-15T17:52:27.305Z,73.22
2018-03-15T17:54:53.207Z,73.37
2018-03-15T17:57:19.069Z,73.37
2018-03-15T17:59:44.965Z,73.56
2018-03-15T18:02:10.933Z,73.47
2018-03-15T18:04:36.814Z,73.72
2018-03-15T18:07:02.728Z,73.89
2018-03-15T18:09:28.597Z,73.81
2018-03-15T18:11:54.589Z,73.77
2018-03-15T18:14:20.514Z,73.83
2018-03-15T18:16:46.378Z,74.14
2018-03-15T18:19:12.229Z,74.38
2018-03-15T18:21:38.134Z,74.09
2018-03-15T18:24:04.000Z,73.96
2018-03-15T18:26:30.005Z,74.47
2018-03-15T18:28:55.920Z,74.18
2018-03-15T18:31:21.776Z,74.58
2018-03-15T18:33:47.633Z,74.21
2018-03-15T18:36:13.530Z,74.95
2018-03-15T18:38:39.497Z,73.93
2018-03-15T18:41:05.426Z,74.72
2018-03-15T18:43:31.321Z,75.04
2018-03-15T18:45:57.176Z,75.09
2018-03-15T18:48:23.038Z,74.71
2018-03-15T18:50:48.943Z,74.82
2018-03-15T18:53:15.809Z,75.09
2018-03-15T18:55:41.693Z,74.98
2018-03-15T18:58:07.914Z,74.50
2018-03-15T19:00:33.819Z,75.15
2018-03-15T19:02:59.754Z,75.86
2018-03-15T19:05:25.720Z,75.49
2018-03-15T19:07:51.584Z,75.52
2018-03-15T19:10:17.449Z,75.82
2018-03-15T19:12:43.421Z,76.10
2018-03-15T19:15:09.284Z,76.21
2018-03-15T19:17:35.142Z,75.78
2018-03-15T19:20:01.201Z,76.05
2018-03-15T19:22:27.069Z,76.22
2018-03-15T19:24:52.949Z,76.35
2018-03-15T19:27:19.305Z,76.40
2018-03-15T19:29:45.168Z,76.12
2018-03-15T19:32:11.026Z,76.41
2018-03-15T19:34:36.930Z,76.55
2018-03-15T19:37:02.796Z,76.57
2018-03-15T19:39:28.741Z,76.22
2018-03-15T19:41:54.686Z,76.58
2018-03-15T19:44:20.549Z,76.63
2018-03-15T19:46:47.091Z,76.66
2018-03-15T19:49:13.111Z,76.42
2018-03-15T19:51:39.032Z,76.59
2018-03-15T19:54:04.896Z,76.71
2018-03-15T19:56:30.902Z,76.75
2018-03-15T19:58:56.777Z,76.58
2018-03-15T20:01:22.650Z,76.62
2018-03-15T20:03:48.704Z,77.15
2018-03-15T20:06:14.577Z,77.43
2018-03-15T20:08:40.453Z,77.00
2018-03-15T20:11:06.357Z,77.34
2018-03-15T20:13:32.224Z,77.19
2018-03-15T20:15:58.152Z,77.30
2018-03-15T20:18:24.067Z,77.36
2018-03-15T20:20:49.929Z,77.68
2018-03-15T20:23:21.884Z,77.98
2018-03-15T20:25:47.794Z,77.55
2018-03-15T20:31:18.313Z,77.80
2018-03-15T20:33:50.161Z,77.59
2018-03-15T20:36:16.021Z,77.91
2018-03-15T20:38:42.065Z,77.74
2018-03-15T20:41:14.189Z,78.24
2018-03-15T20:43:40.670Z,77.72
2018-03-15T20:46:13.032Z,78.11
2018-03-15T20:48:45.370Z,78.58
2018-03-15T20:51:11.402Z,78.24
2018-03-15T20:53:37.305Z,77.94
2018-03-15T20:56:03.218Z,78.05
2018-03-15T20:58:29.074Z,78.21
2018-03-15T21:00:55.061Z,78.15
2018-03-15T21:03:21.010Z,78.32
2018-03-15T21:05:47.038Z,77.94
2018-03-15T21:08:12.935Z,78.00
2018-03-15T21:10:38.793Z,78.38
2018-03-15T21:13:04.641Z,78.44
2018-03-15T21:15:30.527Z,78.23
2018-03-15T21:17:56.415Z,78.54
2018-03-15T21:20:22.329Z,78.50
2018-03-15T21:22:48.224Z,78.78
2018-03-15T21:25:14.098Z,78.78
2018-03-15T21:27:39.958Z,78.54
2018-03-15T21:30:05.869Z,78.77
2018-03-15T21:32:31.804Z,78.86
2018-03-15T21:34:57.652Z,78.79
2018-03-15T21:37:23.614Z,78.95
2018-03-15T21:39:49.472Z,79.10
2018-03-15T21:42:15.724Z,79.03
2018-03-15T21:44:41.638Z,79.34
2018-03-15T21:47:07.502Z,79.31
2018-03-15T21:49:33.429Z,79.17
2018-03-15T21:51:59.390Z,79.36
2018-03-15T21:54:25.253Z,79.03
2018-03-15T21:56:51.093Z,79.46
2018-03-15T21:59:16.985Z,79.38
2018-03-15T22:01:42.844Z,79.42
2018-03-15T22:04:08.692Z,79.12
2018-03-15T22:06:34.585Z,79.46
2018-03-15T22:09:00.445Z,79.45
2018-03-15T22:11:26.319Z,79.73
2018-03-15T22:13:52.269Z,79.88
2018-03-15T22:16:18.177Z,79.88
2018-03-15T22:18:44.046Z,79.94
2018-03-15T22:21:09.949Z,79.70
2018-03-15T22:23:35.809Z,79.80
2018-03-15T22:26:01.668Z,79.79
2018-03-15T22:28:27.577Z,79.78
2018-03-15T22:30:53.473Z,79.87
2018-03-15T22:33:19.345Z,79.93
2018-03-15T22:35:45.282Z,79.82
2018-03-15T22:38:11.132Z,80.30
2018-03-15T22:40:36.992Z,79.63
2018-03-15T22:43:02.895Z,80.22
2018-03-15T22:45:28.759Z,80.60
2018-03-15T22:47:54.618Z,80.48
2018-03-15T22:50:20.505Z,80.62
2018-03-15T22:52:46.430Z,80.36
2018-03-15T22:55:12.286Z,80.73
2018-03-15T22:57:38.194Z,80.20
2018-03-15T23:00:04.055Z,80.64
2018-03-15T23:02:29.905Z,80.60
2018-03-15T23:04:55.801Z,80.54
2018-03-15T23:07:21.664Z,80.40
2018-03-15T23:09:47.516Z,80.57
2018-03-15T23:12:13.409Z,80.96
2018-03-15T23:14:39.350Z,80.84
2018-03-15T23:17:05.211Z,81.08
2018-03-15T23:19:31.118Z,81.23
2018-03-15T23:21:56.977Z,81.10
2018-03-15T23:24:22.830Z,81.45
2018-03-15T23:26:48.727Z,81.18
2018-03-15T23:29:14.588Z,81.26
2018-03-15T23:31:40.444Z,81.26
2018-03-15T23:34:06.333Z,81.35
2018-03-15T23:36:32.202Z,81.21
2018-03-15T23:38:58.069Z,81.09
2018-03-15T23:41:23.976Z,81.40
2018-03-15T23:43:49.833Z,81.55
2018-03-15T23:46:15.730Z,81.20
2018-03-15T23:48:41.704Z,81.44
2018-03-15T23:51:07.620Z,81.18
2018-03-15T23:53:33.534Z,81.47
2018-03-15T23:55:59.428Z,81.34
2018-03-15T23:58:25.285Z,81.33
